createdAt,value
2022-12-22T00:02:39.035Z,13.10
2022-12-22T00:05:36.070Z,15.40
2022-12-22T00:08:23.510Z,15.30
2022-12-22T00:11:11.850Z,15.70
2022-12-22T00:14:03.675Z,11.10
2022-12-22T00:16:56.025Z,10.70
2022-12-22T00:19:42.759Z,10.90
2022-12-22T00:22:39.696Z,10.50
2022-12-22T00:25:28.363Z,9.60
2022-12-22T00:31:03.182Z,6.90
2022-12-22T00:33:50.342Z,7.70
2022-12-22T00:36:42.443Z,15.20
2022-12-22T00:39:32.782Z,13.70
2022-12-22T00:42:19.369Z,14.20
2022-12-22T00:45:06.288Z,12.00
2022-12-22T00:47:53.506Z,11.00
2022-12-22T00:50:50.121Z,10.60
2022-12-22T00:53:37.208Z,9.60
2022-12-22T00:56:25.144Z,8.60
2022-12-22T00:59:15.184Z,8.30
2022-12-22T01:02:01.807Z,8.10
2022-12-22T01:04:49.179Z,8.30
2022-12-22T01:07:41.016Z,8.00
2022-12-22T01:10:32.409Z,8.60
2022-12-22T01:13:19.747Z,8.40
2022-12-22T01:16:06.408Z,8.00
2022-12-22T01:18:53.259Z,10.30
2022-12-22T01:21:39.861Z,12.30
2022-12-22T01:24:31.392Z,13.10
2022-12-22T01:27:18.654Z,11.60
2022-12-22T01:30:05.541Z,11.80
2022-12-22T01:32:51.950Z,16.10
2022-12-22T01:35:41.529Z,12.90
2022-12-22T01:38:28.600Z,15.10
2022-12-22T01:41:17.393Z,13.60
2022-12-22T01:44:03.997Z,13.90
2022-12-22T01:46:56.220Z,14.20
2022-12-22T01:49:48.846Z,16.40
2022-12-22T01:52:39.469Z,16.00
2022-12-22T01:55:30.864Z,16.60
2022-12-22T01:58:17.443Z,16.70
2022-12-22T02:01:05.771Z,17.20
2022-12-22T02:03:53.436Z,16.20
2022-12-22T02:07:12.660Z,15.70
2022-12-22T02:10:22.518Z,17.80
2022-12-22T02:13:23.791Z,18.90
2022-12-22T02:16:20.158Z,21.10
2022-12-22T02:19:16.392Z,17.30
2022-12-22T02:22:18.568Z,17.20
2022-12-22T02:25:12.099Z,15.40
2022-12-22T02:28:00.096Z,21.90
2022-12-22T02:30:47.557Z,18.10
2022-12-22T02:33:34.600Z,19.40
2022-12-22T02:36:52.101Z,19.20
2022-12-22T02:40:11.812Z,18.30
2022-12-22T02:43:13.353Z,18.60
2022-12-22T02:46:28.523Z,18.20
2022-12-22T02:49:21.049Z,19.50
2022-12-22T02:52:20.132Z,19.10
2022-12-22T02:57:52.916Z,18.10
2022-12-22T03:00:40.111Z,21.40
2022-12-22T03:03:27.036Z,19.50
2022-12-22T03:06:13.849Z,19.40
2022-12-22T03:09:00.701Z,19.40
2022-12-22T03:11:47.103Z,18.20
2022-12-22T03:14:33.719Z,20.00
2022-12-22T03:17:20.368Z,22.50
2022-12-22T03:20:06.843Z,17.60
2022-12-22T03:22:53.513Z,20.90
2022-12-22T03:25:40.393Z,21.60
2022-12-22T03:28:09.250Z,21.60
2022-12-22T03:30:38.231Z,21.00
2022-12-22T03:33:06.612Z,19.60
2022-12-22T03:35:34.682Z,17.80
2022-12-22T03:38:03.781Z,19.30
2022-12-22T03:43:18.693Z,18.60
2022-12-22T03:46:05.574Z,19.40
2022-12-22T03:48:33.570Z,17.90
2022-12-22T03:51:01.829Z,17.70
2022-12-22T03:53:30.211Z,18.90
2022-12-22T03:56:01.296Z,17.40
2022-12-22T03:58:33.859Z,17.70
2022-12-22T04:01:08.189Z,16.40
2022-12-22T04:03:36.205Z,18.70
2022-12-22T04:06:04.495Z,20.20
2022-12-22T04:08:32.966Z,21.70
2022-12-22T04:11:20.084Z,19.60
2022-12-22T04:13:48.050Z,22.50
2022-12-22T04:16:16.365Z,26.20
2022-12-22T04:18:44.356Z,24.70
2022-12-22T04:21:12.576Z,24.50
2022-12-22T04:23:41.216Z,22.40
2022-12-22T04:26:09.686Z,22.00
2022-12-22T04:28:37.648Z,20.00
2022-12-22T04:31:05.701Z,18.80
2022-12-22T04:33:33.726Z,18.60
2022-12-22T04:36:02.140Z,18.20
2022-12-22T04:38:30.318Z,20.30
2022-12-22T04:40:58.353Z,22.80
2022-12-22T04:43:26.659Z,20.30
2022-12-22T04:45:55.771Z,20.90
2022-12-22T04:48:25.839Z,20.30
2022-12-22T04:50:56.171Z,24.60
2022-12-22T04:53:26.197Z,23.30
2022-12-22T04:56:01.044Z,15.70
2022-12-22T04:58:29.883Z,25.40
2022-12-22T05:01:07.584Z,24.70
2022-12-22T05:03:35.812Z,23.30
2022-12-22T05:06:04.329Z,26.50
2022-12-22T05:08:32.399Z,19.10
2022-12-22T05:11:02.894Z,23.20
2022-12-22T05:13:32.004Z,21.30
2022-12-22T05:16:07.867Z,24.00
2022-12-22T05:18:37.650Z,23.70
2022-12-22T05:21:18.119Z,25.20
2022-12-22T05:23:46.699Z,24.50
2022-12-22T05:26:17.277Z,24.60
2022-12-22T05:28:46.801Z,26.20
2022-12-22T05:31:21.623Z,28.20
2022-12-22T05:33:49.999Z,28.60
2022-12-22T05:36:19.094Z,25.80
2022-12-22T05:38:47.181Z,26.40
2022-12-22T05:41:15.353Z,27.50
2022-12-22T05:43:43.325Z,26.90
2022-12-22T05:46:12.607Z,29.20
2022-12-22T05:48:40.834Z,31.00
2022-12-22T05:51:09.691Z,30.70
2022-12-22T05:53:38.370Z,29.30
2022-12-22T05:56:07.939Z,31.30
2022-12-22T05:58:38.982Z,28.10
2022-12-22T06:01:07.335Z,29.70
2022-12-22T06:03:35.476Z,29.90
2022-12-22T06:06:03.764Z,28.90
2022-12-22T06:08:31.925Z,28.60
2022-12-22T06:11:00.299Z,27.20
2022-12-22T06:13:28.395Z,27.50
2022-12-22T06:15:56.838Z,27.10
2022-12-22T06:18:25.458Z,26.20
2022-12-22T06:20:53.841Z,27.40
2022-12-22T06:23:22.708Z,27.60
2022-12-22T06:25:59.591Z,28.90
2022-12-22T06:28:28.692Z,28.30
2022-12-22T06:30:56.960Z,28.60
2022-12-22T06:33:25.340Z,28.10
2022-12-22T06:35:58.699Z,27.60
2022-12-22T06:38:28.358Z,30.70
2022-12-22T06:40:56.989Z,26.70
2022-12-22T06:43:25.917Z,28.60
2022-12-22T06:45:54.071Z,28.50
2022-12-22T06:48:22.339Z,27.70
2022-12-22T06:50:50.855Z,24.40
2022-12-22T06:53:19.031Z,28.30
2022-12-22T06:55:47.322Z,28.10
2022-12-22T06:58:15.582Z,27.50
2022-12-22T07:00:45.458Z,28.50
2022-12-22T07:03:13.813Z,25.30
2022-12-22T07:05:42.464Z,26.50
2022-12-22T07:08:10.540Z,28.20
2022-12-22T07:10:57.232Z,27.70
2022-12-22T07:13:34.255Z,24.90
2022-12-22T07:16:04.976Z,27.80
2022-12-22T07:18:35.596Z,27.00
2022-12-22T07:21:05.705Z,28.10
2022-12-22T07:23:34.185Z,25.80
2022-12-22T07:26:02.865Z,27.60
2022-12-22T07:28:34.207Z,24.70
2022-12-22T07:31:03.608Z,24.70
2022-12-22T07:36:06.282Z,23.50
2022-12-22T07:38:36.135Z,24.30
2022-12-22T07:41:25.701Z,27.10
2022-12-22T07:43:54.521Z,25.10
2022-12-22T07:46:24.711Z,26.80
2022-12-22T07:49:13.203Z,27.80
2022-12-22T07:51:43.455Z,24.90
2022-12-22T07:54:14.148Z,23.10
2022-12-22T07:56:43.713Z,24.60
2022-12-22T07:59:12.837Z,22.80
2022-12-22T08:01:41.838Z,23.20
2022-12-22T08:04:11.386Z,26.50
2022-12-22T08:06:40.317Z,22.50
2022-12-22T08:09:09.296Z,25.10
2022-12-22T08:11:37.393Z,27.20
2022-12-22T08:14:05.772Z,24.90
2022-12-22T08:16:34.098Z,24.10
2022-12-22T08:19:04.275Z,23.10
2022-12-22T08:21:32.814Z,24.20
2022-12-22T08:24:01.062Z,23.40
2022-12-22T08:26:40.705Z,26.20
2022-12-22T08:29:20.213Z,25.00
2022-12-22T08:31:48.342Z,26.70
2022-12-22T08:34:16.772Z,27.20
2022-12-22T08:36:49.389Z,28.10
2022-12-22T08:39:20.708Z,28.60
2022-12-22T08:41:52.126Z,28.80
2022-12-22T08:44:24.252Z,28.70
2022-12-22T08:46:54.270Z,30.10
2022-12-22T08:49:23.017Z,27.30
2022-12-22T08:51:51.897Z,27.60
2022-12-22T08:54:20.612Z,28.10
2022-12-22T08:56:49.957Z,27.80
2022-12-22T08:59:17.945Z,24.50
2022-12-22T09:01:50.931Z,27.90
2022-12-22T09:04:23.216Z,26.00
2022-12-22T09:06:53.612Z,29.30
2022-12-22T09:09:21.719Z,28.10
2022-12-22T09:11:50.348Z,28.50
2022-12-22T09:14:18.572Z,28.60
2022-12-22T09:16:46.724Z,26.80
2022-12-22T09:19:14.719Z,28.60
2022-12-22T09:21:43.411Z,28.10
2022-12-22T09:24:11.640Z,30.40
2022-12-22T09:26:40.284Z,30.20
2022-12-22T09:29:08.546Z,32.10
2022-12-22T09:31:36.969Z,31.10
2022-12-22T09:34:04.956Z,32.50
2022-12-22T09:36:34.089Z,31.90
2022-12-22T09:39:06.773Z,32.20
2022-12-22T09:41:58.019Z,32.90
2022-12-22T09:44:31.322Z,30.70
2022-12-22T09:47:03.100Z,32.00
2022-12-22T09:49:31.424Z,32.10
2022-12-22T09:52:02.628Z,31.70
2022-12-22T09:54:31.151Z,33.00
2022-12-22T09:56:59.421Z,32.90
2022-12-22T09:59:28.851Z,32.60
2022-12-22T10:02:34.486Z,29.10
2022-12-22T10:05:26.870Z,30.80
2022-12-22T10:08:02.071Z,29.70
2022-12-22T10:10:31.660Z,31.30
2022-12-22T10:13:03.112Z,31.50
2022-12-22T10:15:40.166Z,32.00
2022-12-22T10:18:10.832Z,29.60
2022-12-22T10:20:39.999Z,26.50
2022-12-22T10:23:23.682Z,23.20
2022-12-22T10:26:27.611Z,26.40
2022-12-22T10:28:51.730Z,26.90
2022-12-22T10:31:27.500Z,26.60
2022-12-22T10:34:09.513Z,29.30
2022-12-22T10:36:39.014Z,28.60
2022-12-22T10:39:11.387Z,31.30
2022-12-22T10:41:47.316Z,28.00
2022-12-22T10:44:26.182Z,27.90
2022-12-22T10:47:17.136Z,27.30
2022-12-22T10:52:29.481Z,27.20
2022-12-22T10:55:22.454Z,29.00
2022-12-22T10:57:50.752Z,25.90
2022-12-22T11:00:27.114Z,31.00
2022-12-22T11:03:00.933Z,29.10
2022-12-22T11:05:29.925Z,28.90
2022-12-22T11:08:13.237Z,26.40
2022-12-22T11:11:07.927Z,26.30
2022-12-22T11:13:55.581Z,26.50
2022-12-22T11:16:46.532Z,23.20
2022-12-22T11:19:55.640Z,24.60
2022-12-22T11:25:14.464Z,22.60
2022-12-22T11:28:19.898Z,27.20
2022-12-22T11:31:20.447Z,26.30
2022-12-22T11:34:28.595Z,28.40
2022-12-22T11:37:15.246Z,26.40
2022-12-22T11:39:57.442Z,28.20
2022-12-22T11:42:58.317Z,28.60
2022-12-22T11:45:54.396Z,29.70
2022-12-22T11:48:32.212Z,28.40
2022-12-22T11:51:36.131Z,28.10
2022-12-22T11:54:11.967Z,25.80
2022-12-22T11:56:44.548Z,27.70
2022-12-22T11:59:24.411Z,27.20
2022-12-22T12:02:11.456Z,26.50
2022-12-22T12:05:06.945Z,24.50
2022-12-22T12:07:41.224Z,22.90
2022-12-22T12:10:56.227Z,27.00
2022-12-22T12:13:37.654Z,22.50
2022-12-22T12:16:24.003Z,21.90
2022-12-22T12:19:23.111Z,20.70
2022-12-22T12:22:00.666Z,26.00
2022-12-22T12:25:02.015Z,26.60
2022-12-22T12:27:51.146Z,25.50
2022-12-22T12:30:38.071Z,26.00
2022-12-22T12:33:16.050Z,25.90
2022-12-22T12:36:03.264Z,26.40
2022-12-22T12:39:07.506Z,22.10
2022-12-22T12:41:36.583Z,21.60
2022-12-22T12:44:06.146Z,23.30
2022-12-22T12:46:55.375Z,22.00
2022-12-22T12:49:36.213Z,26.70
2022-12-22T12:52:11.779Z,25.50
2022-12-22T12:54:43.693Z,26.00
2022-12-22T12:57:31.159Z,23.40
2022-12-22T13:00:00.813Z,21.10
2022-12-22T13:02:32.232Z,23.50
2022-12-22T13:05:13.660Z,22.60
2022-12-22T13:08:11.617Z,24.70
2022-12-22T13:10:49.689Z,27.30
2022-12-22T13:13:27.078Z,26.00
2022-12-22T13:16:10.337Z,25.30
2022-12-22T13:18:47.457Z,24.40
2022-12-22T13:24:25.213Z,25.20
2022-12-22T13:26:56.206Z,26.40
2022-12-22T13:29:28.225Z,27.20
2022-12-22T13:32:02.859Z,27.60
2022-12-22T13:35:30.377Z,27.10
2022-12-22T13:37:47.529Z,26.40
2022-12-22T13:40:22.445Z,27.40
2022-12-22T13:42:54.349Z,25.90
2022-12-22T13:45:28.526Z,24.60
2022-12-22T13:47:56.904Z,25.40
2022-12-22T13:50:36.665Z,27.00
2022-12-22T13:53:08.269Z,26.00
2022-12-22T13:55:37.113Z,26.80
2022-12-22T13:58:09.466Z,26.40
2022-12-22T14:00:37.670Z,25.80
2022-12-22T14:03:41.690Z,27.50
2022-12-22T14:06:34.403Z,25.80
2022-12-22T14:09:25.872Z,25.30
2022-12-22T14:12:03.874Z,27.70
2022-12-22T14:14:38.879Z,28.40
2022-12-22T14:17:22.316Z,26.90
2022-12-22T14:19:52.733Z,27.30
2022-12-22T14:22:43.843Z,28.20
2022-12-22T14:25:32.717Z,27.90
2022-12-22T14:28:01.388Z,28.70
2022-12-22T14:30:38.795Z,27.80
2022-12-22T14:33:28.588Z,26.80
2022-12-22T14:36:24.086Z,27.00
2022-12-22T14:38:52.441Z,26.80
2022-12-22T14:41:44.346Z,27.70
2022-12-22T14:44:15.408Z,26.10
2022-12-22T14:46:45.586Z,27.00
2022-12-22T14:49:19.845Z,22.40
2022-12-22T14:52:04.036Z,26.00
2022-12-22T14:54:32.484Z,23.50
2022-12-22T14:57:15.547Z,21.80
2022-12-22T15:00:05.254Z,23.70
2022-12-22T15:02:39.641Z,20.30
2022-12-22T15:05:24.571Z,21.20
2022-12-22T15:08:10.742Z,22.60
2022-12-22T15:10:42.767Z,25.00
2022-12-22T15:13:19.013Z,26.20
2022-12-22T15:15:47.286Z,22.80
2022-12-22T15:18:15.985Z,25.50
2022-12-22T15:20:44.274Z,22.70
2022-12-22T15:23:14.853Z,25.00
2022-12-22T15:25:43.454Z,23.80
2022-12-22T15:28:11.486Z,25.10
2022-12-22T15:30:39.948Z,22.50
2022-12-22T15:33:16.581Z,26.30
2022-12-22T15:35:45.184Z,23.00
2022-12-22T15:38:19.169Z,25.30
2022-12-22T15:40:47.749Z,22.20
2022-12-22T15:43:55.218Z,24.20
2022-12-22T15:46:07.061Z,23.20
2022-12-22T15:48:38.574Z,23.60
2022-12-22T15:51:21.122Z,22.50
2022-12-22T15:53:50.306Z,22.10
2022-12-22T15:56:21.778Z,23.50
2022-12-22T15:58:49.969Z,24.30
2022-12-22T16:01:18.297Z,23.90
2022-12-22T16:03:46.708Z,26.20
2022-12-22T16:06:17.698Z,26.00
2022-12-22T16:08:52.035Z,25.20
2022-12-22T16:11:20.420Z,24.90
2022-12-22T16:13:50.445Z,25.30
2022-12-22T16:16:18.604Z,22.00
2022-12-22T16:18:46.739Z,25.00
2022-12-22T16:21:18.614Z,21.20
2022-12-22T16:23:49.462Z,20.30
2022-12-22T16:26:20.945Z,20.00
2022-12-22T16:28:49.215Z,20.60
2022-12-22T16:31:22.413Z,23.70
2022-12-22T16:33:50.990Z,24.00
2022-12-22T16:36:19.191Z,26.90
2022-12-22T16:38:48.095Z,24.10
2022-12-22T16:41:22.049Z,22.50
2022-12-22T16:43:51.018Z,20.50
2022-12-22T16:46:22.377Z,29.30
2022-12-22T16:48:54.792Z,19.90
2022-12-22T16:51:26.700Z,22.00
2022-12-22T16:53:54.655Z,22.00
2022-12-22T16:56:28.234Z,23.80
2022-12-22T16:58:57.317Z,24.10
2022-12-22T17:01:31.440Z,22.60
2022-12-22T17:04:05.648Z,24.00
2022-12-22T17:06:35.271Z,27.30
2022-12-22T17:09:07.310Z,26.40
2022-12-22T17:11:37.370Z,29.30
2022-12-22T17:14:16.824Z,25.50
2022-12-22T17:19:13.291Z,29.60
2022-12-22T17:21:41.267Z,25.90
2022-12-22T17:24:14.090Z,31.20
2022-12-22T17:26:42.663Z,34.50
2022-12-22T17:29:17.309Z,31.00
2022-12-22T17:31:45.445Z,29.90
2022-12-22T17:34:16.753Z,33.10
2022-12-22T17:36:47.560Z,32.00
2022-12-22T17:39:18.771Z,32.70
2022-12-22T17:41:54.045Z,32.30
2022-12-22T17:44:26.797Z,32.80
2022-12-22T17:46:55.308Z,30.30
2022-12-22T17:49:23.576Z,27.20
2022-12-22T17:51:51.652Z,24.30
2022-12-22T17:54:25.898Z,24.60
2022-12-22T17:56:59.602Z,26.10
2022-12-22T17:59:27.743Z,27.10
2022-12-22T18:01:56.117Z,27.70
2022-12-22T18:04:24.159Z,28.80
2022-12-22T18:06:52.259Z,23.90
2022-12-22T18:09:26.599Z,27.20
2022-12-22T18:11:54.646Z,27.20
2022-12-22T18:14:23.219Z,26.40
2022-12-22T18:16:51.402Z,29.50
2022-12-22T18:19:19.580Z,28.20
2022-12-22T18:21:48.375Z,29.70
2022-12-22T18:24:18.845Z,26.40
2022-12-22T18:26:47.584Z,24.70
2022-12-22T18:29:16.824Z,21.60
2022-12-22T18:31:45.481Z,23.70
2022-12-22T18:34:13.843Z,25.40
2022-12-22T18:36:44.196Z,23.80
2022-12-22T18:39:21.705Z,22.20
2022-12-22T18:41:49.753Z,23.80
2022-12-22T18:44:19.198Z,21.20
2022-12-22T18:46:48.761Z,22.90
2022-12-22T18:49:17.381Z,20.00
2022-12-22T18:51:46.088Z,21.20
2022-12-22T18:54:31.385Z,21.80
2022-12-22T18:56:59.503Z,21.20
2022-12-22T18:59:28.594Z,23.20
2022-12-22T19:02:02.800Z,24.20
2022-12-22T19:04:30.969Z,21.90
2022-12-22T19:06:58.920Z,19.30
2022-12-22T19:09:27.405Z,19.00
2022-12-22T19:11:55.475Z,20.20
2022-12-22T19:14:23.596Z,19.80
2022-12-22T19:16:54.779Z,18.30
2022-12-22T19:19:22.972Z,14.50
2022-12-22T19:21:51.236Z,13.70
2022-12-22T19:24:19.218Z,16.80
2022-12-22T19:26:47.318Z,15.80
2022-12-22T19:29:15.613Z,14.80
2022-12-22T19:31:44.448Z,17.00
2022-12-22T19:34:19.942Z,18.30
2022-12-22T19:36:48.121Z,20.00
2022-12-22T19:39:16.428Z,20.70
2022-12-22T19:41:51.367Z,25.60
2022-12-22T19:44:26.528Z,24.90
2022-12-22T19:46:59.215Z,20.10
2022-12-22T19:49:29.141Z,17.90
2022-12-22T19:51:57.940Z,17.90
2022-12-22T19:54:26.003Z,21.60
2022-12-22T19:56:56.105Z,18.70
2022-12-22T19:59:41.455Z,23.20
2022-12-22T20:02:24.753Z,17.50
2022-12-22T20:04:54.690Z,16.20
2022-12-22T20:07:25.166Z,16.30
2022-12-22T20:09:53.862Z,15.20
2022-12-22T20:12:29.809Z,19.30
2022-12-22T20:14:58.311Z,17.90
2022-12-22T20:17:26.314Z,23.50
2022-12-22T20:19:54.454Z,19.40
2022-12-22T20:22:23.322Z,22.30
2022-12-22T20:24:51.517Z,18.40
2022-12-22T20:27:23.438Z,11.50
2022-12-22T20:29:51.572Z,14.80
2022-12-22T20:32:27.345Z,17.60
2022-12-22T20:34:56.577Z,16.70
2022-12-22T20:37:25.524Z,14.10
2022-12-22T20:39:53.552Z,17.60
2022-12-22T20:42:23.867Z,19.90
2022-12-22T20:45:03.319Z,24.10
2022-12-22T20:47:34.303Z,21.20
2022-12-22T20:50:02.420Z,25.10
2022-12-22T20:52:30.387Z,22.00
2022-12-22T20:54:59.083Z,20.80
2022-12-22T20:57:27.980Z,23.20
2022-12-22T20:59:56.876Z,22.70
2022-12-22T21:02:29.771Z,19.60
2022-12-22T21:04:58.441Z,18.10
2022-12-22T21:07:26.519Z,20.20
2022-12-22T21:09:55.912Z,20.00
2022-12-22T21:12:23.979Z,20.00
2022-12-22T21:14:52.461Z,23.40
2022-12-22T21:17:20.767Z,26.80
2022-12-22T21:19:48.781Z,26.80
2022-12-22T21:22:16.645Z,26.30
2022-12-22T21:24:44.818Z,28.30
2022-12-22T21:27:20.458Z,28.00
2022-12-22T21:29:48.513Z,28.60
2022-12-22T21:32:16.983Z,26.80
2022-12-22T21:34:45.134Z,29.40
2022-12-22T21:37:17.310Z,29.80
2022-12-22T21:39:45.675Z,31.60
2022-12-22T21:42:18.787Z,31.50
2022-12-22T21:44:47.347Z,32.00
2022-12-22T21:47:18.373Z,32.40
2022-12-22T21:49:46.970Z,33.00
2022-12-22T21:52:15.156Z,31.50
2022-12-22T21:54:43.226Z,33.20
2022-12-22T21:57:16.296Z,36.30
2022-12-22T21:59:44.274Z,36.90
2022-12-22T22:02:17.716Z,33.80
2022-12-22T22:04:53.728Z,29.70
2022-12-22T22:07:22.991Z,33.60
2022-12-22T22:09:50.961Z,32.10
2022-12-22T22:12:34.066Z,26.30
2022-12-22T22:15:07.543Z,31.20
2022-12-22T22:17:35.630Z,31.20
2022-12-22T22:20:05.927Z,29.70
2022-12-22T22:22:34.211Z,20.50
2022-12-22T22:25:02.479Z,23.30
2022-12-22T22:27:30.556Z,29.70
2022-12-22T22:29:58.847Z,27.70
2022-12-22T22:32:27.009Z,27.70
2022-12-22T22:34:55.100Z,22.50
2022-12-22T22:37:23.151Z,20.80
2022-12-22T22:39:51.231Z,27.50
2022-12-22T22:42:19.403Z,22.90
2022-12-22T22:44:47.482Z,30.20
2022-12-22T22:47:16.070Z,24.90
2022-12-22T22:49:50.080Z,28.10
2022-12-22T22:52:18.530Z,29.10
2022-12-22T22:54:46.666Z,27.60
2022-12-22T22:57:16.041Z,27.10
2022-12-22T22:59:43.864Z,31.50
2022-12-22T23:02:12.193Z,32.30
2022-12-22T23:04:40.487Z,32.90
2022-12-22T23:07:08.613Z,32.10
2022-12-22T23:09:36.643Z,28.90
2022-12-22T23:12:05.319Z,30.20
2022-12-22T23:14:33.176Z,30.80
2022-12-22T23:17:01.160Z,25.30
2022-12-22T23:19:29.551Z,28.40
2022-12-22T23:21:57.711Z,27.00
2022-12-22T23:24:25.754Z,25.00
2022-12-22T23:26:53.956Z,26.90
2022-12-22T23:29:21.895Z,29.40
2022-12-22T23:31:50.051Z,27.10
2022-12-22T23:34:18.212Z,24.80
2022-12-22T23:36:46.141Z,25.60
2022-12-22T23:39:14.314Z,23.40
2022-12-22T23:41:42.480Z,34.00
2022-12-22T23:44:10.531Z,32.30
2022-12-22T23:46:39.436Z,32.20
2022-12-22T23:49:10.800Z,32.10
2022-12-22T23:51:38.760Z,25.30
2022-12-22T23:54:07.521Z,31.00
2022-12-22T23:56:35.730Z,29.20
2022-12-22T23:59:03.856Z,31.30
